TW-0030 weather

Tungs’ Taichung Metro Harbor Hospital Helipad
Taichung, Taichung (city), Taiwan

Public forecast

Using degrees Celsius for public forecast. Weather courtesy of forecast.io.

Closest aviation weather report (METAR) to Tungs’ Taichung Metro Harbor Hospital Helipad

Closest report is Taichung Ching Chuang Kang Airport, 4.4 nm (8.2 km) ENE. Retrieved 2019/11/19 02:30 UTC (0 seconds ago):

RCMQ 190230Z 03027G38KT 9999 FEW008 BKN100 20/13 Q1015 NOSIG RMK A2999

Closest aviation forecast (TAF) to Tungs’ Taichung Metro Harbor Hospital Helipad

Closest forecast is Taichung Ching Chuang Kang Airport, 4.4 nm (8.2 km) ENE. Retrieved 2019-11-19 00:00 UTC (2 hours ago):

TAF RCMQ 182300Z 1900/1924 01025G35KT 9999 FEW008 SCT016 BKN080 TX27/1907Z TN18/1920Z BECMG 1902/1904 01020G30KT BECMG 1917/1920 01012KT